sensor_id;sensor_type;location;lat;lon;timestamp;P1;durP1;ratioP1;P2;durP2;ratioP2
48951;SDS011;34758;42.148;24.744;2022-08-19T00:00:08;7.07;;;4.70;;
48951;SDS011;34758;42.148;24.744;2022-08-19T00:02:39;7.18;;;4.25;;
48951;SDS011;34758;42.148;24.744;2022-08-19T00:05:06;4.78;;;4.38;;
48951;SDS011;34758;42.148;24.744;2022-08-19T00:07:35;4.50;;;4.10;;
48951;SDS011;34758;42.148;24.744;2022-08-19T00:10:03;4.85;;;4.18;;
48951;SDS011;34758;42.148;24.744;2022-08-19T00:12:30;8.45;;;4.90;;
48951;SDS011;34758;42.148;24.744;2022-08-19T00:14:57;6.63;;;4.78;;
48951;SDS011;34758;42.148;24.744;2022-08-19T00:17:24;4.85;;;4.30;;
48951;SDS011;34758;42.148;24.744;2022-08-19T00:19:51;4.90;;;4.40;;
48951;SDS011;34758;42.148;24.744;2022-08-19T00:22:18;4.90;;;4.40;;
48951;SDS011;34758;42.148;24.744;2022-08-19T00:24:47;4.80;;;4.32;;
48951;SDS011;34758;42.148;24.744;2022-08-19T00:27:13;5.90;;;4.28;;
48951;SDS011;34758;42.148;24.744;2022-08-19T00:29:41;5.53;;;4.00;;
48951;SDS011;34758;42.148;24.744;2022-08-19T00:32:08;5.72;;;4.10;;
48951;SDS011;34758;42.148;24.744;2022-08-19T00:34:36;5.50;;;4.50;;
48951;SDS011;34758;42.148;24.744;2022-08-19T00:37:03;8.68;;;4.70;;
48951;SDS011;34758;42.148;24.744;2022-08-19T00:39:30;6.60;;;4.72;;
48951;SDS011;34758;42.148;24.744;2022-08-19T00:41:58;6.38;;;4.35;;
48951;SDS011;34758;42.148;24.744;2022-08-19T00:44:26;5.47;;;4.55;;
48951;SDS011;34758;42.148;24.744;2022-08-19T00:46:56;4.60;;;4.15;;
48951;SDS011;34758;42.148;24.744;2022-08-19T00:49:25;4.45;;;4.05;;
48951;SDS011;34758;42.148;24.744;2022-08-19T00:51:57;4.85;;;4.05;;
48951;SDS011;34758;42.148;24.744;2022-08-19T00:54:27;5.72;;;4.00;;
48951;SDS011;34758;42.148;24.744;2022-08-19T00:56:56;6.97;;;4.47;;
48951;SDS011;34758;42.148;24.744;2022-08-19T00:59:25;5.25;;;4.25;;
48951;SDS011;34758;42.148;24.744;2022-08-19T01:01:53;6.03;;;4.25;;
48951;SDS011;34758;42.148;24.744;2022-08-19T01:04:20;6.45;;;4.78;;
48951;SDS011;34758;42.148;24.744;2022-08-19T01:06:47;9.10;;;4.70;;
48951;SDS011;34758;42.148;24.744;2022-08-19T01:09:14;7.40;;;4.15;;
48951;SDS011;34758;42.148;24.744;2022-08-19T01:11:41;5.20;;;4.68;;
48951;SDS011;34758;42.148;24.744;2022-08-19T01:14:11;7.82;;;4.20;;
48951;SDS011;34758;42.148;24.744;2022-08-19T01:16:38;6.15;;;4.80;;
48951;SDS011;34758;42.148;24.744;2022-08-19T01:19:09;5.10;;;4.70;;
48951;SDS011;34758;42.148;24.744;2022-08-19T01:21:43;7.22;;;5.10;;
48951;SDS011;34758;42.148;24.744;2022-08-19T01:24:14;8.25;;;5.72;;
48951;SDS011;34758;42.148;24.744;2022-08-19T01:26:42;6.72;;;5.13;;
48951;SDS011;34758;42.148;24.744;2022-08-19T01:29:11;5.80;;;5.00;;
48951;SDS011;34758;42.148;24.744;2022-08-19T01:31:39;11.25;;;5.57;;
48951;SDS011;34758;42.148;24.744;2022-08-19T01:34:07;6.68;;;5.32;;
48951;SDS011;34758;42.148;24.744;2022-08-19T01:36:36;6.13;;;5.10;;
48951;SDS011;34758;42.148;24.744;2022-08-19T01:39:05;9.10;;;5.60;;
48951;SDS011;34758;42.148;24.744;2022-08-19T01:41:35;6.63;;;4.85;;
48951;SDS011;34758;42.148;24.744;2022-08-19T01:44:03;8.30;;;5.30;;
48951;SDS011;34758;42.148;24.744;2022-08-19T01:46:31;6.75;;;5.63;;
48951;SDS011;34758;42.148;24.744;2022-08-19T01:48:58;7.10;;;5.03;;
48951;SDS011;34758;42.148;24.744;2022-08-19T01:51:25;6.05;;;5.45;;
48951;SDS011;34758;42.148;24.744;2022-08-19T01:53:52;8.18;;;5.25;;
48951;SDS011;34758;42.148;24.744;2022-08-19T01:56:20;5.70;;;4.97;;
48951;SDS011;34758;42.148;24.744;2022-08-19T01:58:51;5.65;;;5.13;;
48951;SDS011;34758;42.148;24.744;2022-08-19T02:01:20;7.07;;;5.38;;
48951;SDS011;34758;42.148;24.744;2022-08-19T02:03:47;6.28;;;4.88;;
48951;SDS011;34758;42.148;24.744;2022-08-19T02:06:14;11.93;;;6.57;;
48951;SDS011;34758;42.148;24.744;2022-08-19T02:08:42;5.80;;;5.18;;
48951;SDS011;34758;42.148;24.744;2022-08-19T02:11:18;7.10;;;5.40;;
48951;SDS011;34758;42.148;24.744;2022-08-19T02:13:46;6.45;;;5.63;;
48951;SDS011;34758;42.148;24.744;2022-08-19T02:16:16;6.97;;;6.07;;
48951;SDS011;34758;42.148;24.744;2022-08-19T02:18:43;9.25;;;6.15;;
48951;SDS011;34758;42.148;24.744;2022-08-19T02:21:10;7.68;;;5.85;;
48951;SDS011;34758;42.148;24.744;2022-08-19T02:23:38;7.75;;;5.13;;
48951;SDS011;34758;42.148;24.744;2022-08-19T02:26:05;9.55;;;5.45;;
48951;SDS011;34758;42.148;24.744;2022-08-19T02:28:32;9.65;;;6.05;;
48951;SDS011;34758;42.148;24.744;2022-08-19T02:30:59;5.50;;;5.00;;
48951;SDS011;34758;42.148;24.744;2022-08-19T02:33:29;6.07;;;5.47;;
48951;SDS011;34758;42.148;24.744;2022-08-19T02:35:56;8.25;;;5.65;;
48951;SDS011;34758;42.148;24.744;2022-08-19T02:38:23;10.07;;;5.45;;
48951;SDS011;34758;42.148;24.744;2022-08-19T02:40:52;7.45;;;5.32;;
48951;SDS011;34758;42.148;24.744;2022-08-19T02:43:20;8.10;;;6.03;;
48951;SDS011;34758;42.148;24.744;2022-08-19T02:45:48;6.93;;;6.25;;
48951;SDS011;34758;42.148;24.744;2022-08-19T02:48:16;7.22;;;5.90;;
48951;SDS011;34758;42.148;24.744;2022-08-19T02:50:45;9.95;;;6.10;;
48951;SDS011;34758;42.148;24.744;2022-08-19T02:53:13;13.35;;;6.57;;
48951;SDS011;34758;42.148;24.744;2022-08-19T02:55:43;9.73;;;5.68;;
48951;SDS011;34758;42.148;24.744;2022-08-19T02:58:11;7.10;;;5.60;;
48951;SDS011;34758;42.148;24.744;2022-08-19T03:00:45;7.68;;;6.22;;
48951;SDS011;34758;42.148;24.744;2022-08-19T03:03:15;8.77;;;5.82;;
48951;SDS011;34758;42.148;24.744;2022-08-19T03:05:42;7.47;;;5.65;;
48951;SDS011;34758;42.148;24.744;2022-08-19T03:08:11;8.98;;;5.53;;
48951;SDS011;34758;42.148;24.744;2022-08-19T03:10:40;7.75;;;5.90;;
48951;SDS011;34758;42.148;24.744;2022-08-19T03:13:09;9.25;;;6.00;;
48951;SDS011;34758;42.148;24.744;2022-08-19T03:15:39;7.55;;;6.25;;
48951;SDS011;34758;42.148;24.744;2022-08-19T03:18:06;7.82;;;5.55;;
48951;SDS011;34758;42.148;24.744;2022-08-19T03:20:39;8.13;;;6.47;;
48951;SDS011;34758;42.148;24.744;2022-08-19T03:23:07;7.85;;;6.20;;
48951;SDS011;34758;42.148;24.744;2022-08-19T03:25:37;11.10;;;6.55;;
48951;SDS011;34758;42.148;24.744;2022-08-19T03:28:06;9.60;;;6.18;;
48951;SDS011;34758;42.148;24.744;2022-08-19T03:30:33;7.25;;;6.55;;
48951;SDS011;34758;42.148;24.744;2022-08-19T03:33:01;7.05;;;6.32;;
48951;SDS011;34758;42.148;24.744;2022-08-19T03:35:28;7.75;;;6.05;;
48951;SDS011;34758;42.148;24.744;2022-08-19T03:37:54;11.73;;;6.47;;
48951;SDS011;34758;42.148;24.744;2022-08-19T03:40:22;8.50;;;6.22;;
48951;SDS011;34758;42.148;24.744;2022-08-19T03:42:50;10.63;;;6.80;;
48951;SDS011;34758;42.148;24.744;2022-08-19T03:45:17;8.65;;;5.85;;
48951;SDS011;34758;42.148;24.744;2022-08-19T03:47:45;10.43;;;6.55;;
48951;SDS011;34758;42.148;24.744;2022-08-19T03:50:12;8.38;;;5.93;;
48951;SDS011;34758;42.148;24.744;2022-08-19T03:52:39;9.07;;;6.35;;
48951;SDS011;34758;42.148;24.744;2022-08-19T03:55:06;9.85;;;5.97;;
48951;SDS011;34758;42.148;24.744;2022-08-19T03:57:34;7.75;;;6.15;;
48951;SDS011;34758;42.148;24.744;2022-08-19T04:00:03;7.57;;;5.70;;
48951;SDS011;34758;42.148;24.744;2022-08-19T04:02:32;12.43;;;5.43;;
48951;SDS011;34758;42.148;24.744;2022-08-19T04:04:58;9.90;;;6.05;;
48951;SDS011;34758;42.148;24.744;2022-08-19T04:07:26;8.55;;;5.88;;
48951;SDS011;34758;42.148;24.744;2022-08-19T04:09:52;9.95;;;5.65;;
48951;SDS011;34758;42.148;24.744;2022-08-19T04:12:20;8.85;;;6.50;;
48951;SDS011;34758;42.148;24.744;2022-08-19T04:14:47;10.30;;;6.10;;
48951;SDS011;34758;42.148;24.744;2022-08-19T04:17:15;10.32;;;5.80;;
48951;SDS011;34758;42.148;24.744;2022-08-19T04:19:42;7.70;;;6.22;;
48951;SDS011;34758;42.148;24.744;2022-08-19T04:22:09;8.27;;;5.88;;
48951;SDS011;34758;42.148;24.744;2022-08-19T04:24:37;11.23;;;6.20;;
48951;SDS011;34758;42.148;24.744;2022-08-19T04:27:04;10.75;;;6.53;;
48951;SDS011;34758;42.148;24.744;2022-08-19T04:29:31;12.15;;;6.93;;
48951;SDS011;34758;42.148;24.744;2022-08-19T04:31:59;10.88;;;7.18;;
48951;SDS011;34758;42.148;24.744;2022-08-19T04:34:28;13.55;;;7.88;;
48951;SDS011;34758;42.148;24.744;2022-08-19T04:36:56;12.50;;;7.63;;
48951;SDS011;34758;42.148;24.744;2022-08-19T04:39:25;16.88;;;7.97;;
48951;SDS011;34758;42.148;24.744;2022-08-19T04:45:04;14.88;;;8.68;;
48951;SDS011;34758;42.148;24.744;2022-08-19T04:47:31;16.73;;;8.50;;
48951;SDS011;34758;42.148;24.744;2022-08-19T04:50:07;19.08;;;8.68;;
48951;SDS011;34758;42.148;24.744;2022-08-19T04:52:37;17.75;;;7.65;;
48951;SDS011;34758;42.148;24.744;2022-08-19T04:55:08;15.35;;;7.60;;
48951;SDS011;34758;42.148;24.744;2022-08-19T04:57:35;15.27;;;7.93;;
48951;SDS011;34758;42.148;24.744;2022-08-19T05:00:07;14.40;;;8.17;;
48951;SDS011;34758;42.148;24.744;2022-08-19T05:02:35;14.57;;;7.65;;
48951;SDS011;34758;42.148;24.744;2022-08-19T05:05:02;13.10;;;7.80;;
48951;SDS011;34758;42.148;24.744;2022-08-19T05:07:33;19.90;;;7.55;;
48951;SDS011;34758;42.148;24.744;2022-08-19T05:10:01;19.23;;;7.90;;
48951;SDS011;34758;42.148;24.744;2022-08-19T05:12:32;15.53;;;7.93;;
48951;SDS011;34758;42.148;24.744;2022-08-19T05:14:58;16.73;;;7.13;;
48951;SDS011;34758;42.148;24.744;2022-08-19T05:17:27;16.10;;;7.80;;
48951;SDS011;34758;42.148;24.744;2022-08-19T05:19:54;15.95;;;6.72;;
48951;SDS011;34758;42.148;24.744;2022-08-19T05:22:41;10.32;;;7.25;;
48951;SDS011;34758;42.148;24.744;2022-08-19T05:25:09;11.40;;;6.40;;
48951;SDS011;34758;42.148;24.744;2022-08-19T05:27:38;9.35;;;6.53;;
48951;SDS011;34758;42.148;24.744;2022-08-19T05:30:05;12.68;;;7.18;;
48951;SDS011;34758;42.148;24.744;2022-08-19T05:32:33;11.63;;;5.43;;
48951;SDS011;34758;42.148;24.744;2022-08-19T05:35:00;12.18;;;5.75;;
48951;SDS011;34758;42.148;24.744;2022-08-19T05:37:28;6.60;;;5.10;;
48951;SDS011;34758;42.148;24.744;2022-08-19T05:39:56;10.15;;;5.10;;
48951;SDS011;34758;42.148;24.744;2022-08-19T05:42:23;6.40;;;4.97;;
48951;SDS011;34758;42.148;24.744;2022-08-19T05:44:51;6.70;;;4.90;;
48951;SDS011;34758;42.148;24.744;2022-08-19T05:47:18;6.97;;;5.25;;
48951;SDS011;34758;42.148;24.744;2022-08-19T05:49:45;7.05;;;5.18;;
48951;SDS011;34758;42.148;24.744;2022-08-19T05:52:13;7.72;;;5.43;;
48951;SDS011;34758;42.148;24.744;2022-08-19T05:54:42;7.22;;;4.60;;
48951;SDS011;34758;42.148;24.744;2022-08-19T05:57:11;8.85;;;5.22;;
48951;SDS011;34758;42.148;24.744;2022-08-19T05:59:38;7.43;;;5.38;;
48951;SDS011;34758;42.148;24.744;2022-08-19T06:02:05;6.93;;;5.35;;
48951;SDS011;34758;42.148;24.744;2022-08-19T06:04:33;8.02;;;5.45;;
48951;SDS011;34758;42.148;24.744;2022-08-19T06:07:00;17.83;;;5.53;;
48951;SDS011;34758;42.148;24.744;2022-08-19T06:09:28;17.17;;;6.28;;
48951;SDS011;34758;42.148;24.744;2022-08-19T06:11:57;12.82;;;5.60;;
48951;SDS011;34758;42.148;24.744;2022-08-19T06:14:27;13.45;;;6.70;;
48951;SDS011;34758;42.148;24.744;2022-08-19T06:16:56;10.43;;;5.73;;
48951;SDS011;34758;42.148;24.744;2022-08-19T06:19:25;10.98;;;6.38;;
48951;SDS011;34758;42.148;24.744;2022-08-19T06:21:54;7.18;;;5.82;;
48951;SDS011;34758;42.148;24.744;2022-08-19T06:24:22;9.65;;;6.15;;
48951;SDS011;34758;42.148;24.744;2022-08-19T06:26:51;9.25;;;6.10;;
48951;SDS011;34758;42.148;24.744;2022-08-19T06:29:20;8.27;;;5.43;;
48951;SDS011;34758;42.148;24.744;2022-08-19T06:31:51;7.65;;;5.45;;
48951;SDS011;34758;42.148;24.744;2022-08-19T06:34:19;6.20;;;5.25;;
48951;SDS011;34758;42.148;24.744;2022-08-19T06:36:47;8.82;;;5.05;;
48951;SDS011;34758;42.148;24.744;2022-08-19T06:39:15;9.23;;;6.05;;
48951;SDS011;34758;42.148;24.744;2022-08-19T06:41:44;8.80;;;6.18;;
48951;SDS011;34758;42.148;24.744;2022-08-19T06:44:19;7.47;;;5.30;;
48951;SDS011;34758;42.148;24.744;2022-08-19T06:46:46;8.48;;;5.28;;
48951;SDS011;34758;42.148;24.744;2022-08-19T06:49:15;9.68;;;5.40;;
48951;SDS011;34758;42.148;24.744;2022-08-19T06:51:43;7.07;;;5.13;;
48951;SDS011;34758;42.148;24.744;2022-08-19T06:54:12;8.55;;;5.35;;
48951;SDS011;34758;42.148;24.744;2022-08-19T06:56:39;9.65;;;5.00;;
48951;SDS011;34758;42.148;24.744;2022-08-19T06:59:08;6.03;;;4.63;;
48951;SDS011;34758;42.148;24.744;2022-08-19T07:01:37;6.18;;;5.05;;
48951;SDS011;34758;42.148;24.744;2022-08-19T07:04:05;5.65;;;4.63;;
48951;SDS011;34758;42.148;24.744;2022-08-19T07:06:35;11.32;;;6.18;;
48951;SDS011;34758;42.148;24.744;2022-08-19T07:09:02;11.13;;;5.55;;
48951;SDS011;34758;42.148;24.744;2022-08-19T07:11:30;5.95;;;5.05;;
48951;SDS011;34758;42.148;24.744;2022-08-19T07:13:57;8.40;;;4.80;;
48951;SDS011;34758;42.148;24.744;2022-08-19T07:16:25;5.10;;;4.68;;
48951;SDS011;34758;42.148;24.744;2022-08-19T07:18:53;8.50;;;4.55;;
48951;SDS011;34758;42.148;24.744;2022-08-19T07:21:22;5.80;;;4.35;;
48951;SDS011;34758;42.148;24.744;2022-08-19T07:23:53;7.53;;;4.30;;
48951;SDS011;34758;42.148;24.744;2022-08-19T07:26:21;8.45;;;4.25;;
48951;SDS011;34758;42.148;24.744;2022-08-19T07:28:50;8.40;;;4.78;;
48951;SDS011;34758;42.148;24.744;2022-08-19T07:31:18;10.18;;;4.70;;
48951;SDS011;34758;42.148;24.744;2022-08-19T07:33:47;7.15;;;3.92;;
48951;SDS011;34758;42.148;24.744;2022-08-19T07:36:16;5.18;;;4.00;;
48951;SDS011;34758;42.148;24.744;2022-08-19T07:38:46;6.93;;;4.32;;
48951;SDS011;34758;42.148;24.744;2022-08-19T07:41:17;4.00;;;3.60;;
48951;SDS011;34758;42.148;24.744;2022-08-19T07:43:45;8.57;;;3.92;;
48951;SDS011;34758;42.148;24.744;2022-08-19T07:46:13;4.53;;;4.13;;
48951;SDS011;34758;42.148;24.744;2022-08-19T07:48:41;5.22;;;4.22;;
48951;SDS011;34758;42.148;24.744;2022-08-19T07:51:10;6.22;;;4.60;;
48951;SDS011;34758;42.148;24.744;2022-08-19T07:53:37;6.65;;;4.80;;
48951;SDS011;34758;42.148;24.744;2022-08-19T07:56:05;4.45;;;4.07;;
48951;SDS011;34758;42.148;24.744;2022-08-19T07:58:35;5.20;;;4.30;;
48951;SDS011;34758;42.148;24.744;2022-08-19T08:01:05;6.25;;;4.95;;
48951;SDS011;34758;42.148;24.744;2022-08-19T08:03:33;24.63;;;22.10;;
48951;SDS011;34758;42.148;24.744;2022-08-19T08:06:17;7.05;;;6.30;;
48951;SDS011;34758;42.148;24.744;2022-08-19T08:09:02;9.32;;;4.68;;
48951;SDS011;34758;42.148;24.744;2022-08-19T08:11:43;6.88;;;4.57;;
48951;SDS011;34758;42.148;24.744;2022-08-19T08:14:15;7.28;;;4.78;;
48951;SDS011;34758;42.148;24.744;2022-08-19T08:16:43;6.85;;;4.50;;
48951;SDS011;34758;42.148;24.744;2022-08-19T08:19:11;6.13;;;4.50;;
48951;SDS011;34758;42.148;24.744;2022-08-19T08:21:41;7.85;;;5.07;;
48951;SDS011;34758;42.148;24.744;2022-08-19T08:24:08;10.32;;;4.90;;
48951;SDS011;34758;42.148;24.744;2022-08-19T08:26:35;5.47;;;4.47;;
48951;SDS011;34758;42.148;24.744;2022-08-19T08:29:03;6.07;;;4.40;;
48951;SDS011;34758;42.148;24.744;2022-08-19T08:31:31;6.53;;;4.68;;
48951;SDS011;34758;42.148;24.744;2022-08-19T08:33:59;9.93;;;4.72;;
48951;SDS011;34758;42.148;24.744;2022-08-19T08:36:26;6.13;;;4.72;;
48951;SDS011;34758;42.148;24.744;2022-08-19T08:38:53;5.88;;;4.80;;
48951;SDS011;34758;42.148;24.744;2022-08-19T08:41:22;8.05;;;4.40;;
48951;SDS011;34758;42.148;24.744;2022-08-19T08:43:55;4.93;;;4.28;;
48951;SDS011;34758;42.148;24.744;2022-08-19T08:46:25;5.95;;;4.60;;
48951;SDS011;34758;42.148;24.744;2022-08-19T08:48:57;6.03;;;4.20;;
48951;SDS011;34758;42.148;24.744;2022-08-19T08:51:29;7.50;;;4.45;;
48951;SDS011;34758;42.148;24.744;2022-08-19T08:54:02;6.25;;;5.07;;
48951;SDS011;34758;42.148;24.744;2022-08-19T08:56:31;5.93;;;4.35;;
48951;SDS011;34758;42.148;24.744;2022-08-19T08:59:01;5.55;;;4.68;;
48951;SDS011;34758;42.148;24.744;2022-08-19T09:01:33;5.00;;;4.53;;
48951;SDS011;34758;42.148;24.744;2022-08-19T09:04:04;5.32;;;4.45;;
48951;SDS011;34758;42.148;24.744;2022-08-19T09:09:03;5.68;;;4.50;;
48951;SDS011;34758;42.148;24.744;2022-08-19T09:11:35;4.90;;;4.07;;
48951;SDS011;34758;42.148;24.744;2022-08-19T09:14:13;9.13;;;4.80;;
48951;SDS011;34758;42.148;24.744;2022-08-19T09:16:45;5.75;;;4.07;;
48951;SDS011;34758;42.148;24.744;2022-08-19T09:19:14;5.03;;;4.07;;
48951;SDS011;34758;42.148;24.744;2022-08-19T09:21:42;9.10;;;5.03;;
48951;SDS011;34758;42.148;24.744;2022-08-19T09:24:10;4.43;;;4.07;;
48951;SDS011;34758;42.148;24.744;2022-08-19T09:26:37;5.85;;;4.75;;
48951;SDS011;34758;42.148;24.744;2022-08-19T09:29:04;4.55;;;3.65;;
48951;SDS011;34758;42.148;24.744;2022-08-19T09:31:31;4.97;;;3.72;;
48951;SDS011;34758;42.148;24.744;2022-08-19T09:33:59;4.57;;;3.83;;
48951;SDS011;34758;42.148;24.744;2022-08-19T09:36:31;4.70;;;4.10;;
48951;SDS011;34758;42.148;24.744;2022-08-19T09:39:01;5.95;;;4.50;;
48951;SDS011;34758;42.148;24.744;2022-08-19T09:41:29;7.35;;;5.13;;
48951;SDS011;34758;42.148;24.744;2022-08-19T09:43:57;7.30;;;4.30;;
48951;SDS011;34758;42.148;24.744;2022-08-19T09:46:25;7.18;;;4.57;;
48951;SDS011;34758;42.148;24.744;2022-08-19T09:48:53;5.95;;;4.65;;
48951;SDS011;34758;42.148;24.744;2022-08-19T09:51:22;5.95;;;4.28;;
48951;SDS011;34758;42.148;24.744;2022-08-19T09:53:52;5.25;;;3.95;;
48951;SDS011;34758;42.148;24.744;2022-08-19T09:56:20;7.47;;;4.53;;
48951;SDS011;34758;42.148;24.744;2022-08-19T09:58:48;6.60;;;4.53;;
48951;SDS011;34758;42.148;24.744;2022-08-19T10:01:16;4.97;;;4.55;;
48951;SDS011;34758;42.148;24.744;2022-08-19T10:03:46;8.15;;;4.90;;
48951;SDS011;34758;42.148;24.744;2022-08-19T10:06:14;4.85;;;4.40;;
48951;SDS011;34758;42.148;24.744;2022-08-19T10:08:41;8.55;;;4.60;;
48951;SDS011;34758;42.148;24.744;2022-08-19T10:11:10;4.68;;;4.10;;
48951;SDS011;34758;42.148;24.744;2022-08-19T10:13:37;6.18;;;3.85;;
48951;SDS011;34758;42.148;24.744;2022-08-19T10:16:05;4.90;;;4.10;;
48951;SDS011;34758;42.148;24.744;2022-08-19T10:18:34;7.03;;;3.75;;
48951;SDS011;34758;42.148;24.744;2022-08-19T10:21:03;4.57;;;4.18;;
48951;SDS011;34758;42.148;24.744;2022-08-19T10:23:33;5.50;;;4.50;;
48951;SDS011;34758;42.148;24.744;2022-08-19T10:26:01;5.00;;;4.53;;
48951;SDS011;34758;42.148;24.744;2022-08-19T10:28:32;6.95;;;4.32;;
48951;SDS011;34758;42.148;24.744;2022-08-19T10:31:05;4.95;;;4.35;;
48951;SDS011;34758;42.148;24.744;2022-08-19T10:33:33;4.43;;;4.10;;
48951;SDS011;34758;42.148;24.744;2022-08-19T10:36:01;6.18;;;4.50;;
48951;SDS011;34758;42.148;24.744;2022-08-19T10:38:29;6.47;;;4.60;;
48951;SDS011;34758;42.148;24.744;2022-08-19T10:40:56;6.65;;;4.13;;
48951;SDS011;34758;42.148;24.744;2022-08-19T10:43:24;5.50;;;4.30;;
48951;SDS011;34758;42.148;24.744;2022-08-19T10:45:53;5.30;;;4.10;;
48951;SDS011;34758;42.148;24.744;2022-08-19T10:48:23;6.22;;;4.30;;
48951;SDS011;34758;42.148;24.744;2022-08-19T10:50:50;5.10;;;4.10;;
48951;SDS011;34758;42.148;24.744;2022-08-19T10:53:34;4.75;;;4.25;;
48951;SDS011;34758;42.148;24.744;2022-08-19T10:56:01;7.95;;;7.20;;
48951;SDS011;34758;42.148;24.744;2022-08-19T10:58:46;3.88;;;3.53;;
48951;SDS011;34758;42.148;24.744;2022-08-19T11:01:16;4.57;;;3.85;;
48951;SDS011;34758;42.148;24.744;2022-08-19T11:03:44;3.90;;;3.60;;
48951;SDS011;34758;42.148;24.744;2022-08-19T11:06:11;3.88;;;3.58;;
48951;SDS011;34758;42.148;24.744;2022-08-19T11:08:38;7.00;;;4.25;;
48951;SDS011;34758;42.148;24.744;2022-08-19T11:11:07;4.18;;;3.83;;
48951;SDS011;34758;42.148;24.744;2022-08-19T11:13:37;4.15;;;3.65;;
48951;SDS011;34758;42.148;24.744;2022-08-19T11:16:06;4.45;;;4.05;;
48951;SDS011;34758;42.148;24.744;2022-08-19T11:18:39;3.90;;;3.22;;
48951;SDS011;34758;42.148;24.744;2022-08-19T11:21:08;5.50;;;3.50;;
48951;SDS011;34758;42.148;24.744;2022-08-19T11:23:37;6.28;;;3.30;;
48951;SDS011;34758;42.148;24.744;2022-08-19T11:26:04;3.67;;;3.38;;
48951;SDS011;34758;42.148;24.744;2022-08-19T11:28:31;5.90;;;3.78;;
48951;SDS011;34758;42.148;24.744;2022-08-19T11:30:59;6.70;;;3.70;;
48951;SDS011;34758;42.148;24.744;2022-08-19T11:33:26;4.03;;;3.63;;
48951;SDS011;34758;42.148;24.744;2022-08-19T11:35:56;4.05;;;3.40;;
48951;SDS011;34758;42.148;24.744;2022-08-19T11:38:24;4.03;;;3.63;;
48951;SDS011;34758;42.148;24.744;2022-08-19T11:40:55;4.45;;;3.60;;
48951;SDS011;34758;42.148;24.744;2022-08-19T11:43:22;4.35;;;3.70;;
48951;SDS011;34758;42.148;24.744;2022-08-19T11:45:52;3.58;;;3.22;;
48951;SDS011;34758;42.148;24.744;2022-08-19T11:48:20;7.40;;;3.88;;
48951;SDS011;34758;42.148;24.744;2022-08-19T11:50:48;4.43;;;4.05;;
48951;SDS011;34758;42.148;24.744;2022-08-19T11:53:17;3.88;;;3.58;;
48951;SDS011;34758;42.148;24.744;2022-08-19T11:55:45;5.22;;;3.72;;
48951;SDS011;34758;42.148;24.744;2022-08-19T11:58:12;4.07;;;3.78;;
48951;SDS011;34758;42.148;24.744;2022-08-19T12:00:40;4.03;;;3.40;;
48951;SDS011;34758;42.148;24.744;2022-08-19T12:03:10;4.90;;;3.50;;
48951;SDS011;34758;42.148;24.744;2022-08-19T12:05:38;4.18;;;3.78;;
48951;SDS011;34758;42.148;24.744;2022-08-19T12:08:05;4.25;;;3.50;;
48951;SDS011;34758;42.148;24.744;2022-08-19T12:10:34;6.20;;;3.58;;
48951;SDS011;34758;42.148;24.744;2022-08-19T12:13:01;4.80;;;3.88;;
48951;SDS011;34758;42.148;24.744;2022-08-19T12:15:29;4.43;;;4.03;;
48951;SDS011;34758;42.148;24.744;2022-08-19T12:17:56;4.00;;;3.70;;
48951;SDS011;34758;42.148;24.744;2022-08-19T12:20:23;5.63;;;4.40;;
48951;SDS011;34758;42.148;24.744;2022-08-19T12:22:51;4.50;;;4.10;;
48951;SDS011;34758;42.148;24.744;2022-08-19T12:25:18;4.70;;;3.80;;
48951;SDS011;34758;42.148;24.744;2022-08-19T12:27:47;4.60;;;4.07;;
48951;SDS011;34758;42.148;24.744;2022-08-19T12:30:14;4.15;;;3.85;;
48951;SDS011;34758;42.148;24.744;2022-08-19T12:32:42;6.10;;;4.07;;
48951;SDS011;34758;42.148;24.744;2022-08-19T12:35:08;7.07;;;3.97;;
48951;SDS011;34758;42.148;24.744;2022-08-19T12:37:36;5.03;;;3.97;;
48951;SDS011;34758;42.148;24.744;2022-08-19T12:40:04;5.70;;;4.30;;
48951;SDS011;34758;42.148;24.744;2022-08-19T12:42:32;4.05;;;3.58;;
48951;SDS011;34758;42.148;24.744;2022-08-19T12:45:01;4.07;;;3.78;;
48951;SDS011;34758;42.148;24.744;2022-08-19T12:47:28;6.53;;;4.10;;
48951;SDS011;34758;42.148;24.744;2022-08-19T12:49:55;3.85;;;3.53;;
48951;SDS011;34758;42.148;24.744;2022-08-19T12:52:22;3.92;;;3.42;;
48951;SDS011;34758;42.148;24.744;2022-08-19T12:54:52;4.53;;;4.13;;
48951;SDS011;34758;42.148;24.744;2022-08-19T12:57:20;6.45;;;4.80;;
48951;SDS011;34758;42.148;24.744;2022-08-19T12:59:51;5.63;;;4.28;;
48951;SDS011;34758;42.148;24.744;2022-08-19T13:02:20;4.75;;;4.18;;
48951;SDS011;34758;42.148;24.744;2022-08-19T13:04:47;4.55;;;4.15;;
48951;SDS011;34758;42.148;24.744;2022-08-19T13:07:14;4.90;;;4.35;;
48951;SDS011;34758;42.148;24.744;2022-08-19T13:09:41;4.70;;;4.10;;
48951;SDS011;34758;42.148;24.744;2022-08-19T13:12:08;6.60;;;3.85;;
48951;SDS011;34758;42.148;24.744;2022-08-19T13:14:38;5.80;;;3.28;;
48951;SDS011;34758;42.148;24.744;2022-08-19T13:17:05;4.25;;;3.88;;
48951;SDS011;34758;42.148;24.744;2022-08-19T13:19:36;5.43;;;4.15;;
48951;SDS011;34758;42.148;24.744;2022-08-19T13:22:05;4.07;;;3.63;;
48951;SDS011;34758;42.148;24.744;2022-08-19T13:24:31;4.28;;;3.92;;
48951;SDS011;34758;42.148;24.744;2022-08-19T13:26:58;5.60;;;4.70;;
48951;SDS011;34758;42.148;24.744;2022-08-19T13:29:26;4.38;;;3.97;;
48951;SDS011;34758;42.148;24.744;2022-08-19T13:32:10;5.57;;;3.80;;
48951;SDS011;34758;42.148;24.744;2022-08-19T13:34:56;4.47;;;4.03;;
48951;SDS011;34758;42.148;24.744;2022-08-19T13:37:23;3.67;;;3.38;;
48951;SDS011;34758;42.148;24.744;2022-08-19T13:40:04;3.95;;;3.55;;
48951;SDS011;34758;42.148;24.744;2022-08-19T13:42:32;3.58;;;3.38;;
48951;SDS011;34758;42.148;24.744;2022-08-19T13:44:59;4.03;;;3.70;;
48951;SDS011;34758;42.148;24.744;2022-08-19T13:47:26;4.28;;;3.53;;
48951;SDS011;34758;42.148;24.744;2022-08-19T13:49:53;5.18;;;3.65;;
48951;SDS011;34758;42.148;24.744;2022-08-19T13:52:21;3.75;;;3.45;;
48951;SDS011;34758;42.148;24.744;2022-08-19T13:54:48;3.97;;;3.72;;
48951;SDS011;34758;42.148;24.744;2022-08-19T13:57:15;4.53;;;3.95;;
48951;SDS011;34758;42.148;24.744;2022-08-19T13:59:42;4.80;;;3.30;;
48951;SDS011;34758;42.148;24.744;2022-08-19T14:02:09;5.00;;;3.35;;
48951;SDS011;34758;42.148;24.744;2022-08-19T14:04:36;4.35;;;3.55;;
48951;SDS011;34758;42.148;24.744;2022-08-19T14:07:03;5.13;;;3.60;;
48951;SDS011;34758;42.148;24.744;2022-08-19T14:09:32;3.95;;;3.58;;
48951;SDS011;34758;42.148;24.744;2022-08-19T14:11:59;5.50;;;3.80;;
48951;SDS011;34758;42.148;24.744;2022-08-19T14:14:25;4.30;;;4.00;;
48951;SDS011;34758;42.148;24.744;2022-08-19T14:16:53;6.32;;;3.90;;
48951;SDS011;34758;42.148;24.744;2022-08-19T14:19:20;4.20;;;3.90;;
48951;SDS011;34758;42.148;24.744;2022-08-19T14:21:47;4.95;;;4.28;;
48951;SDS011;34758;42.148;24.744;2022-08-19T14:24:14;4.45;;;4.05;;
48951;SDS011;34758;42.148;24.744;2022-08-19T14:26:42;4.35;;;3.85;;
48951;SDS011;34758;42.148;24.744;2022-08-19T14:29:09;3.92;;;3.60;;
48951;SDS011;34758;42.148;24.744;2022-08-19T14:31:36;4.13;;;3.65;;
48951;SDS011;34758;42.148;24.744;2022-08-19T14:34:06;5.13;;;3.63;;
48951;SDS011;34758;42.148;24.744;2022-08-19T14:36:34;4.32;;;4.03;;
48951;SDS011;34758;42.148;24.744;2022-08-19T14:39:01;4.90;;;4.25;;
48951;SDS011;34758;42.148;24.744;2022-08-19T14:41:28;5.03;;;4.03;;
48951;SDS011;34758;42.148;24.744;2022-08-19T14:43:56;5.30;;;4.00;;
48951;SDS011;34758;42.148;24.744;2022-08-19T14:46:24;4.70;;;4.15;;